createdAt,value
2022-12-04T00:05:01.968Z,101666.91
2022-12-04T00:10:08.387Z,101668.25
2022-12-04T00:15:27.754Z,101659.97
2022-12-04T00:20:31.464Z,101658.81
2022-12-04T00:25:41.168Z,101659.44
2022-12-04T00:30:46.248Z,101646.53
2022-12-04T00:35:49.986Z,101647.41
2022-12-04T00:40:55.627Z,101648.66
2022-12-04T00:45:59.420Z,101643.87
2022-12-04T00:51:04.105Z,101647.16
2022-12-04T00:56:11.490Z,101645.97
2022-12-04T01:01:16.942Z,101647.75
2022-12-04T01:06:23.397Z,101656.91
2022-12-04T01:11:30.034Z,101651.19
2022-12-04T01:16:36.286Z,101651.69
2022-12-04T01:21:40.294Z,101656.91
2022-12-04T01:26:45.359Z,101661.13
2022-12-04T01:31:49.122Z,101650.16
2022-12-04T01:36:53.037Z,101659.47
2022-12-04T01:41:58.388Z,101650.31
2022-12-04T01:47:02.501Z,101652.69
2022-12-04T01:52:10.965Z,101650.03
2022-12-04T01:57:18.553Z,101652.44
2022-12-04T02:02:25.849Z,101645.38
2022-12-04T02:07:30.310Z,101644.44
2022-12-04T02:12:43.019Z,101639.41
2022-12-04T02:17:55.349Z,101643.63
2022-12-04T02:23:26.189Z,101632.22
2022-12-04T02:28:36.714Z,101638.97
2022-12-04T02:33:45.948Z,101632.81
2022-12-04T02:38:56.474Z,101630.88
2022-12-04T02:44:08.063Z,101642.84
2022-12-04T02:49:18.696Z,101630.25
2022-12-04T02:54:26.641Z,101631.44
2022-12-04T02:59:32.817Z,101622.88
2022-12-04T03:04:39.570Z,101619.28
2022-12-04T03:09:47.450Z,101622.63
2022-12-04T03:14:58.348Z,101615.44
2022-12-04T03:20:07.367Z,101618.88
2022-12-04T03:25:12.015Z,101625.91
2022-12-04T03:30:20.758Z,101613.16
2022-12-04T03:35:30.259Z,101617.03
2022-12-04T03:40:38.756Z,101611.94
2022-12-04T03:45:48.976Z,101614.78
2022-12-04T03:51:02.139Z,101608.03
2022-12-04T03:56:12.599Z,101609.25
2022-12-04T04:01:22.351Z,101612.28
2022-12-04T04:06:31.849Z,101600.72
2022-12-04T04:11:41.253Z,101600.41
2022-12-04T04:17:07.817Z,101602.97
2022-12-04T04:22:29.040Z,101602.97
2022-12-04T04:27:32.739Z,101601.91
2022-12-04T04:32:44.698Z,101601.19
2022-12-04T04:37:57.784Z,101599.78
2022-12-04T04:43:07.411Z,101601.00
2022-12-04T04:48:16.330Z,101613.31
2022-12-04T04:53:24.135Z,101606.72
2022-12-04T04:58:27.880Z,101606.13
2022-12-04T05:03:33.407Z,101611.66
2022-12-04T05:08:37.361Z,101609.25
2022-12-04T05:13:41.798Z,101604.91
2022-12-04T05:19:07.633Z,101606.72
2022-12-04T05:24:11.361Z,101603.28
2022-12-04T05:29:15.084Z,101608.38
2022-12-04T05:34:20.148Z,101612.09
2022-12-04T05:39:23.945Z,101615.16
2022-12-04T05:44:27.714Z,101620.81
2022-12-04T05:49:34.365Z,101617.63
2022-12-04T05:54:38.141Z,101616.47
2022-12-04T05:59:41.910Z,101611.19
2022-12-04T06:04:47.110Z,101598.56
2022-12-04T06:09:50.807Z,101603.88
2022-12-04T06:14:54.502Z,101602.34
2022-12-04T06:20:00.240Z,101597.06
2022-12-04T06:25:04.795Z,101601.53
2022-12-04T06:30:09.726Z,101603.66
2022-12-04T06:35:14.804Z,101595.28
2022-12-04T06:40:18.510Z,101595.13
2022-12-04T06:45:22.238Z,101597.69
2022-12-04T06:50:27.297Z,101590.03
2022-12-04T06:55:31.015Z,101582.37
2022-12-04T07:00:34.716Z,101594.09
2022-12-04T07:05:39.739Z,101601.88
2022-12-04T07:10:43.786Z,101607.59
2022-12-04T07:15:47.456Z,101618.69
2022-12-04T07:20:52.562Z,101616.00
2022-12-04T07:25:56.199Z,101616.75
2022-12-04T07:30:59.915Z,101624.97
2022-12-04T07:36:08.024Z,101630.06
2022-12-04T07:41:12.356Z,101629.66
2022-12-04T07:46:18.360Z,101631.16
2022-12-04T07:51:25.775Z,101628.59
2022-12-04T07:56:29.694Z,101628.25
2022-12-04T08:01:33.965Z,101632.19
2022-12-04T08:06:39.603Z,101633.84
2022-12-04T08:11:43.422Z,101636.94
2022-12-04T08:16:52.700Z,101636.78
2022-12-04T08:21:58.156Z,101639.66
2022-12-04T08:27:01.892Z,101645.81
2022-12-04T08:32:05.982Z,101649.25
2022-12-04T08:37:11.021Z,101651.97
2022-12-04T08:42:14.699Z,101665.59
2022-12-04T08:47:18.508Z,101660.59
2022-12-04T08:52:23.595Z,101656.44
2022-12-04T08:57:27.282Z,101647.72
2022-12-04T09:02:30.958Z,101658.47
2022-12-04T09:07:36.149Z,101641.84
2022-12-04T09:12:40.117Z,101649.28
2022-12-04T09:17:43.839Z,101639.22
2022-12-04T09:23:03.564Z,101637.69
2022-12-04T09:28:07.966Z,101644.13
2022-12-04T09:33:11.685Z,101641.22
2022-12-04T09:38:16.782Z,101648.13
2022-12-04T09:43:32.728Z,101650.59
2022-12-04T09:48:41.761Z,101656.13
2022-12-04T09:53:50.712Z,101656.44
2022-12-04T09:58:59.259Z,101662.78
2022-12-04T10:04:06.284Z,101662.44
2022-12-04T10:09:18.412Z,101661.19
2022-12-04T10:14:42.873Z,101657.25
2022-12-04T10:19:57.742Z,101661.13
2022-12-04T10:25:09.498Z,101651.88
2022-12-04T10:30:20.357Z,101646.66
2022-12-04T10:35:26.298Z,101641.41
2022-12-04T10:40:36.544Z,101632.31
2022-12-04T10:45:40.306Z,101632.34
2022-12-04T10:50:45.563Z,101633.25
2022-12-04T10:55:50.743Z,101643.19
2022-12-04T11:01:04.960Z,101647.84
2022-12-04T11:06:11.336Z,101644.91
2022-12-04T11:11:23.521Z,101646.53
2022-12-04T11:16:35.407Z,101639.66
2022-12-04T11:21:39.727Z,101631.41
2022-12-04T11:26:44.964Z,101616.75
2022-12-04T11:31:50.477Z,101609.41
2022-12-04T11:36:57.272Z,101616.56
2022-12-04T11:42:07.595Z,101607.19
2022-12-04T11:47:18.959Z,101600.63
2022-12-04T11:52:32.639Z,101616.28
2022-12-04T11:57:44.658Z,101595.87
2022-12-04T12:03:10.898Z,101603.53
2022-12-04T12:08:24.918Z,101599.47
2022-12-04T12:13:36.666Z,101607.19
2022-12-04T12:18:55.195Z,101607.06
2022-12-04T12:24:10.695Z,101593.06
2022-12-04T12:29:30.016Z,101591.94
2022-12-04T12:34:39.010Z,101577.47
2022-12-04T12:39:49.758Z,101577.47
2022-12-04T12:45:04.186Z,101570.66
2022-12-04T12:50:16.057Z,101574.38
2022-12-04T12:55:25.042Z,101564.81
2022-12-04T13:00:33.162Z,101558.78
2022-12-04T13:05:40.125Z,101547.38
2022-12-04T13:10:49.187Z,101550.66
2022-12-04T13:15:59.282Z,101553.31
2022-12-04T13:21:07.596Z,101554.19
2022-12-04T13:26:22.762Z,101553.00
2022-12-04T13:31:36.580Z,101560.44
2022-12-04T13:36:58.467Z,101556.59
2022-12-04T13:42:05.145Z,101559.34
2022-12-04T13:47:28.193Z,101565.50
2022-12-04T13:52:40.761Z,101555.91
2022-12-04T13:57:54.305Z,101551.84
2022-12-04T14:03:02.291Z,101550.34
2022-12-04T14:08:09.317Z,101549.31
2022-12-04T14:13:20.779Z,101540.59
2022-12-04T14:18:30.610Z,101554.88
2022-12-04T14:23:39.013Z,101551.97
2022-12-04T14:28:45.225Z,101556.94
2022-12-04T14:33:53.677Z,101550.97
2022-12-04T14:39:05.003Z,101551.69
2022-12-04T14:44:20.006Z,101559.63
2022-12-04T14:49:36.731Z,101558.00
2022-12-04T14:54:51.592Z,101560.81
2022-12-04T14:59:56.800Z,101561.97
2022-12-04T15:05:03.933Z,101559.28
2022-12-04T15:10:38.383Z,101549.09
2022-12-04T15:15:46.949Z,101542.31
2022-12-04T15:20:58.049Z,101556.84
2022-12-04T15:26:04.250Z,101559.75
2022-12-04T15:31:15.303Z,101563.97
2022-12-04T15:36:32.634Z,101568.59
2022-12-04T15:41:38.291Z,101576.37
2022-12-04T15:46:44.534Z,101574.44
2022-12-04T15:51:49.824Z,101573.56
2022-12-04T15:57:01.914Z,101574.59
2022-12-04T16:02:10.109Z,101571.91
2022-12-04T16:07:23.613Z,101583.00
2022-12-04T16:12:29.687Z,101580.84
2022-12-04T16:17:36.466Z,101582.78
2022-12-04T16:22:42.381Z,101587.88
2022-12-04T16:27:46.041Z,101588.81
2022-12-04T16:32:49.740Z,101589.41
2022-12-04T16:37:54.859Z,101606.03
2022-12-04T16:42:58.539Z,101593.13
2022-12-04T16:48:02.298Z,101594.19
2022-12-04T16:53:07.370Z,101597.00
2022-12-04T16:58:11.097Z,101602.09
2022-12-04T17:03:17.987Z,101593.81
2022-12-04T17:08:24.198Z,101582.09
2022-12-04T17:13:27.953Z,101593.41
2022-12-04T17:18:31.685Z,101591.16
2022-12-04T17:23:36.781Z,101598.44
2022-12-04T17:28:41.291Z,101608.91
2022-12-04T17:33:45.846Z,101598.44
2022-12-04T17:38:54.203Z,101606.56
2022-12-04T17:44:01.018Z,101607.00
2022-12-04T17:49:07.304Z,101620.78
2022-12-04T17:54:13.105Z,101623.06
2022-12-04T17:59:16.845Z,101627.59
2022-12-04T18:04:20.836Z,101635.94
2022-12-04T18:09:25.949Z,101646.50
2022-12-04T18:14:30.459Z,101643.47
2022-12-04T18:19:34.207Z,101632.34
2022-12-04T18:24:39.637Z,101631.88
2022-12-04T18:29:43.499Z,101630.72
2022-12-04T18:34:47.227Z,101643.34
2022-12-04T18:39:52.350Z,101617.81
2022-12-04T18:44:56.011Z,101626.31
2022-12-04T18:50:00.006Z,101617.34
2022-12-04T18:55:05.964Z,101612.97
2022-12-04T19:00:10.550Z,101614.50
2022-12-04T19:05:14.558Z,101623.19
2022-12-04T19:10:19.856Z,101633.97
2022-12-04T19:15:23.856Z,101631.16
2022-12-04T19:20:27.585Z,101626.63
2022-12-04T19:25:32.788Z,101626.50
2022-12-04T19:30:36.600Z,101629.31
2022-12-04T19:35:40.335Z,101626.63
2022-12-04T19:40:45.473Z,101631.00
2022-12-04T19:45:49.553Z,101628.84
2022-12-04T19:50:53.366Z,101625.41
2022-12-04T19:55:58.623Z,101633.44
2022-12-04T20:01:03.125Z,101633.19
2022-12-04T20:06:08.864Z,101639.59
2022-12-04T20:11:17.027Z,101630.53
2022-12-04T20:16:21.013Z,101645.62
2022-12-04T20:21:28.437Z,101637.97
2022-12-04T20:26:37.214Z,101641.25
2022-12-04T20:31:42.919Z,101633.44
2022-12-04T20:36:48.507Z,101626.37
2022-12-04T20:41:53.643Z,101629.53
2022-12-04T20:46:59.421Z,101634.16
2022-12-04T20:52:03.245Z,101640.91
2022-12-04T20:57:08.468Z,101634.66
2022-12-04T21:02:14.596Z,101641.88
2022-12-04T21:07:18.432Z,101642.72
2022-12-04T21:12:43.257Z,101645.69
2022-12-04T21:17:47.257Z,101646.56
2022-12-04T21:22:53.770Z,101647.47
2022-12-04T21:27:58.800Z,101645.16
2022-12-04T21:33:02.643Z,101653.75
2022-12-04T21:38:06.372Z,101646.22
2022-12-04T21:43:11.444Z,101652.22
2022-12-04T21:48:15.224Z,101650.69
2022-12-04T21:53:18.989Z,101652.62
2022-12-04T21:58:25.405Z,101647.66
2022-12-04T22:03:29.158Z,101637.31
2022-12-04T22:08:35.704Z,101638.84
2022-12-04T22:13:41.177Z,101641.16
2022-12-04T22:18:45.336Z,101640.16
2022-12-04T22:23:49.144Z,101646.41
2022-12-04T22:28:54.625Z,101648.22
2022-12-04T22:34:00.672Z,101647.94
2022-12-04T22:39:11.677Z,101650.78
2022-12-04T22:44:16.798Z,101652.41
2022-12-04T22:49:20.704Z,101656.63
2022-12-04T22:54:24.475Z,101651.53
2022-12-04T22:59:29.640Z,101654.44
2022-12-04T23:04:33.477Z,101656.09
2022-12-04T23:09:37.517Z,101656.97
2022-12-04T23:14:42.615Z,101655.72
2022-12-04T23:19:46.304Z,101654.06
2022-12-04T23:24:50.024Z,101653.81
2022-12-04T23:29:55.059Z,101649.75
2022-12-04T23:34:58.752Z,101650.63
2022-12-04T23:40:02.421Z,101643.22
2022-12-04T23:45:08.512Z,101643.22
2022-12-04T23:50:12.235Z,101648.50
2022-12-04T23:55:16.053Z,101646.34
